sensor_id;sensor_type;location;lat;lon;timestamp;P1;durP1;ratioP1;P2;durP2;ratioP2
14789;SDS011;7486;51.010;10.366;2024-01-07T00:01:29;43.70;;;15.17;;
14789;SDS011;7486;51.010;10.366;2024-01-07T00:04:15;95.83;;;17.67;;
14789;SDS011;7486;51.010;10.366;2024-01-07T00:07:01;58.80;;;16.10;;
14789;SDS011;7486;51.010;10.366;2024-01-07T00:09:47;65.20;;;16.40;;
14789;SDS011;7486;51.010;10.366;2024-01-07T00:12:33;99.63;;;18.07;;
14789;SDS011;7486;51.010;10.366;2024-01-07T00:15:20;79.60;;;16.73;;
14789;SDS011;7486;51.010;10.366;2024-01-07T00:18:06;53.93;;;15.87;;
14789;SDS011;7486;51.010;10.366;2024-01-07T00:20:52;68.10;;;16.20;;
14789;SDS011;7486;51.010;10.366;2024-01-07T00:23:37;95.37;;;17.43;;
14789;SDS011;7486;51.010;10.366;2024-01-07T00:26:25;71.10;;;15.47;;
14789;SDS011;7486;51.010;10.366;2024-01-07T00:29:10;101.53;;;17.27;;
14789;SDS011;7486;51.010;10.366;2024-01-07T00:31:57;82.53;;;16.27;;
14789;SDS011;7486;51.010;10.366;2024-01-07T00:34:43;136.40;;;17.90;;
14789;SDS011;7486;51.010;10.366;2024-01-07T00:37:29;84.53;;;16.47;;
14789;SDS011;7486;51.010;10.366;2024-01-07T00:40:14;87.73;;;17.30;;
14789;SDS011;7486;51.010;10.366;2024-01-07T00:43:00;84.53;;;15.60;;
14789;SDS011;7486;51.010;10.366;2024-01-07T00:45:45;66.70;;;14.33;;
14789;SDS011;7486;51.010;10.366;2024-01-07T00:48:31;95.33;;;17.93;;
14789;SDS011;7486;51.010;10.366;2024-01-07T00:51:17;108.00;;;19.27;;
14789;SDS011;7486;51.010;10.366;2024-01-07T00:54:02;69.03;;;16.97;;
14789;SDS011;7486;51.010;10.366;2024-01-07T00:56:48;77.73;;;17.70;;
14789;SDS011;7486;51.010;10.366;2024-01-07T00:59:33;116.67;;;18.17;;
14789;SDS011;7486;51.010;10.366;2024-01-07T01:02:19;73.03;;;16.47;;
14789;SDS011;7486;51.010;10.366;2024-01-07T01:05:05;79.63;;;18.00;;
14789;SDS011;7486;51.010;10.366;2024-01-07T01:07:51;81.70;;;19.00;;
14789;SDS011;7486;51.010;10.366;2024-01-07T01:10:36;68.07;;;16.80;;
14789;SDS011;7486;51.010;10.366;2024-01-07T01:13:24;72.07;;;16.50;;
14789;SDS011;7486;51.010;10.366;2024-01-07T01:16:09;109.57;;;20.07;;
14789;SDS011;7486;51.010;10.366;2024-01-07T01:18:55;83.90;;;17.80;;
14789;SDS011;7486;51.010;10.366;2024-01-07T01:21:40;89.33;;;18.40;;
14789;SDS011;7486;51.010;10.366;2024-01-07T01:24:25;73.47;;;17.57;;
14789;SDS011;7486;51.010;10.366;2024-01-07T01:27:12;124.03;;;19.57;;
14789;SDS011;7486;51.010;10.366;2024-01-07T01:29:57;60.40;;;17.40;;
14789;SDS011;7486;51.010;10.366;2024-01-07T01:32:44;54.40;;;18.10;;
14789;SDS011;7486;51.010;10.366;2024-01-07T01:35:30;51.00;;;18.10;;
14789;SDS011;7486;51.010;10.366;2024-01-07T01:38:16;48.03;;;17.10;;
14789;SDS011;7486;51.010;10.366;2024-01-07T01:41:02;57.17;;;16.63;;
14789;SDS011;7486;51.010;10.366;2024-01-07T01:43:47;54.83;;;18.70;;
14789;SDS011;7486;51.010;10.366;2024-01-07T01:46:33;57.87;;;18.53;;
14789;SDS011;7486;51.010;10.366;2024-01-07T01:49:19;78.30;;;20.20;;
14789;SDS011;7486;51.010;10.366;2024-01-07T01:52:05;65.47;;;19.57;;
14789;SDS011;7486;51.010;10.366;2024-01-07T01:54:51;47.10;;;17.80;;
14789;SDS011;7486;51.010;10.366;2024-01-07T01:57:38;48.20;;;18.83;;
14789;SDS011;7486;51.010;10.366;2024-01-07T02:00:24;47.93;;;17.03;;
14789;SDS011;7486;51.010;10.366;2024-01-07T02:03:09;54.73;;;19.57;;
14789;SDS011;7486;51.010;10.366;2024-01-07T02:05:55;70.33;;;21.07;;
14789;SDS011;7486;51.010;10.366;2024-01-07T02:08:44;59.50;;;20.07;;
14789;SDS011;7486;51.010;10.366;2024-01-07T02:11:30;63.63;;;21.23;;
14789;SDS011;7486;51.010;10.366;2024-01-07T02:14:15;62.57;;;21.37;;
14789;SDS011;7486;51.010;10.366;2024-01-07T02:17:01;58.83;;;21.60;;
14789;SDS011;7486;51.010;10.366;2024-01-07T02:19:46;47.13;;;20.20;;
14789;SDS011;7486;51.010;10.366;2024-01-07T02:22:32;51.57;;;21.67;;
14789;SDS011;7486;51.010;10.366;2024-01-07T02:25:20;45.37;;;19.67;;
14789;SDS011;7486;51.010;10.366;2024-01-07T02:28:05;39.03;;;18.27;;
14789;SDS011;7486;51.010;10.366;2024-01-07T02:30:51;37.77;;;18.77;;
14789;SDS011;7486;51.010;10.366;2024-01-07T02:33:36;34.03;;;17.50;;
14789;SDS011;7486;51.010;10.366;2024-01-07T02:36:22;38.43;;;19.07;;
14789;SDS011;7486;51.010;10.366;2024-01-07T02:39:08;37.13;;;19.67;;
14789;SDS011;7486;51.010;10.366;2024-01-07T02:41:53;40.27;;;19.90;;
14789;SDS011;7486;51.010;10.366;2024-01-07T02:44:39;39.60;;;20.33;;
14789;SDS011;7486;51.010;10.366;2024-01-07T02:47:24;37.27;;;18.93;;
14789;SDS011;7486;51.010;10.366;2024-01-07T02:50:10;35.77;;;18.80;;
14789;SDS011;7486;51.010;10.366;2024-01-07T02:52:55;32.90;;;18.07;;
14789;SDS011;7486;51.010;10.366;2024-01-07T02:55:41;32.33;;;17.53;;
14789;SDS011;7486;51.010;10.366;2024-01-07T02:58:26;35.00;;;19.07;;
14789;SDS011;7486;51.010;10.366;2024-01-07T03:01:12;34.13;;;18.73;;
14789;SDS011;7486;51.010;10.366;2024-01-07T03:03:58;39.67;;;20.30;;
14789;SDS011;7486;51.010;10.366;2024-01-07T03:06:43;34.23;;;18.90;;
14789;SDS011;7486;51.010;10.366;2024-01-07T03:09:29;28.90;;;16.70;;
14789;SDS011;7486;51.010;10.366;2024-01-07T03:12:15;28.07;;;16.30;;
14789;SDS011;7486;51.010;10.366;2024-01-07T03:15:00;26.77;;;15.87;;
14789;SDS011;7486;51.010;10.366;2024-01-07T03:17:46;25.80;;;15.97;;
14789;SDS011;7486;51.010;10.366;2024-01-07T03:20:31;22.40;;;13.70;;
14789;SDS011;7486;51.010;10.366;2024-01-07T03:23:17;19.73;;;13.30;;
14789;SDS011;7486;51.010;10.366;2024-01-07T03:26:02;19.73;;;12.60;;
14789;SDS011;7486;51.010;10.366;2024-01-07T03:28:48;16.87;;;11.43;;
14789;SDS011;7486;51.010;10.366;2024-01-07T03:31:33;15.87;;;11.50;;
14789;SDS011;7486;51.010;10.366;2024-01-07T03:34:19;15.10;;;10.90;;
14789;SDS011;7486;51.010;10.366;2024-01-07T03:37:05;13.77;;;10.63;;
14789;SDS011;7486;51.010;10.366;2024-01-07T03:39:50;13.43;;;10.83;;
14789;SDS011;7486;51.010;10.366;2024-01-07T03:42:36;14.43;;;9.70;;
14789;SDS011;7486;51.010;10.366;2024-01-07T03:45:22;12.93;;;9.97;;
14789;SDS011;7486;51.010;10.366;2024-01-07T03:48:07;13.50;;;10.00;;
14789;SDS011;7486;51.010;10.366;2024-01-07T03:50:52;12.87;;;9.77;;
14789;SDS011;7486;51.010;10.366;2024-01-07T03:53:38;12.23;;;9.40;;
14789;SDS011;7486;51.010;10.366;2024-01-07T03:56:25;10.70;;;8.60;;
14789;SDS011;7486;51.010;10.366;2024-01-07T03:59:10;9.57;;;7.97;;
14789;SDS011;7486;51.010;10.366;2024-01-07T04:01:56;10.13;;;7.90;;
14789;SDS011;7486;51.010;10.366;2024-01-07T04:04:42;9.43;;;7.53;;
14789;SDS011;7486;51.010;10.366;2024-01-07T04:07:28;11.57;;;8.60;;
14789;SDS011;7486;51.010;10.366;2024-01-07T04:10:15;12.43;;;9.03;;
14789;SDS011;7486;51.010;10.366;2024-01-07T04:13:01;11.80;;;9.03;;
14789;SDS011;7486;51.010;10.366;2024-01-07T04:15:46;11.77;;;9.57;;
14789;SDS011;7486;51.010;10.366;2024-01-07T04:18:32;12.23;;;9.50;;
14789;SDS011;7486;51.010;10.366;2024-01-07T04:21:17;12.53;;;10.07;;
14789;SDS011;7486;51.010;10.366;2024-01-07T04:24:03;13.27;;;9.80;;
14789;SDS011;7486;51.010;10.366;2024-01-07T04:26:49;14.03;;;10.20;;
14789;SDS011;7486;51.010;10.366;2024-01-07T04:29:34;12.73;;;10.07;;
14789;SDS011;7486;51.010;10.366;2024-01-07T04:32:20;13.20;;;10.83;;
14789;SDS011;7486;51.010;10.366;2024-01-07T04:35:05;14.53;;;10.97;;
14789;SDS011;7486;51.010;10.366;2024-01-07T04:37:51;13.90;;;10.80;;
14789;SDS011;7486;51.010;10.366;2024-01-07T04:40:36;13.77;;;10.50;;
14789;SDS011;7486;51.010;10.366;2024-01-07T04:43:22;15.10;;;11.23;;
14789;SDS011;7486;51.010;10.366;2024-01-07T04:46:07;12.70;;;9.77;;
14789;SDS011;7486;51.010;10.366;2024-01-07T04:48:53;13.43;;;10.37;;
14789;SDS011;7486;51.010;10.366;2024-01-07T04:51:38;13.67;;;10.23;;
14789;SDS011;7486;51.010;10.366;2024-01-07T04:54:24;14.53;;;10.17;;
14789;SDS011;7486;51.010;10.366;2024-01-07T04:57:10;12.87;;;9.57;;
14789;SDS011;7486;51.010;10.366;2024-01-07T04:59:55;13.17;;;10.30;;
14789;SDS011;7486;51.010;10.366;2024-01-07T05:02:40;13.47;;;10.53;;
14789;SDS011;7486;51.010;10.366;2024-01-07T05:05:26;13.10;;;10.20;;
14789;SDS011;7486;51.010;10.366;2024-01-07T05:08:11;12.97;;;9.57;;
14789;SDS011;7486;51.010;10.366;2024-01-07T05:10:57;12.20;;;9.87;;
14789;SDS011;7486;51.010;10.366;2024-01-07T05:13:42;13.23;;;10.40;;
14789;SDS011;7486;51.010;10.366;2024-01-07T05:16:28;12.87;;;10.10;;
14789;SDS011;7486;51.010;10.366;2024-01-07T05:19:13;13.50;;;10.63;;
14789;SDS011;7486;51.010;10.366;2024-01-07T05:21:59;11.87;;;9.67;;
14789;SDS011;7486;51.010;10.366;2024-01-07T05:24:45;12.63;;;9.17;;
14789;SDS011;7486;51.010;10.366;2024-01-07T05:27:30;12.87;;;10.07;;
14789;SDS011;7486;51.010;10.366;2024-01-07T05:30:15;14.60;;;10.00;;
14789;SDS011;7486;51.010;10.366;2024-01-07T05:33:01;15.67;;;10.87;;
14789;SDS011;7486;51.010;10.366;2024-01-07T05:35:47;13.17;;;10.10;;
14789;SDS011;7486;51.010;10.366;2024-01-07T05:38:33;14.43;;;10.63;;
14789;SDS011;7486;51.010;10.366;2024-01-07T05:41:19;13.90;;;10.87;;
14789;SDS011;7486;51.010;10.366;2024-01-07T05:44:06;15.20;;;10.97;;
14789;SDS011;7486;51.010;10.366;2024-01-07T05:46:51;13.10;;;9.80;;
14789;SDS011;7486;51.010;10.366;2024-01-07T05:49:37;12.13;;;9.93;;
14789;SDS011;7486;51.010;10.366;2024-01-07T05:52:23;14.03;;;10.20;;
14789;SDS011;7486;51.010;10.366;2024-01-07T05:55:09;12.20;;;8.43;;
14789;SDS011;7486;51.010;10.366;2024-01-07T05:57:54;11.77;;;9.40;;
14789;SDS011;7486;51.010;10.366;2024-01-07T06:00:40;12.73;;;9.77;;
14789;SDS011;7486;51.010;10.366;2024-01-07T06:03:25;12.33;;;9.50;;
14789;SDS011;7486;51.010;10.366;2024-01-07T06:06:12;11.50;;;8.13;;
14789;SDS011;7486;51.010;10.366;2024-01-07T06:08:58;10.93;;;7.60;;
14789;SDS011;7486;51.010;10.366;2024-01-07T06:11:43;10.23;;;7.77;;
14789;SDS011;7486;51.010;10.366;2024-01-07T06:14:29;10.37;;;7.83;;
14789;SDS011;7486;51.010;10.366;2024-01-07T06:17:14;9.47;;;7.23;;
14789;SDS011;7486;51.010;10.366;2024-01-07T06:19:59;9.53;;;7.00;;
14789;SDS011;7486;51.010;10.366;2024-01-07T06:22:45;10.77;;;8.17;;
14789;SDS011;7486;51.010;10.366;2024-01-07T06:25:30;9.23;;;6.37;;
14789;SDS011;7486;51.010;10.366;2024-01-07T06:28:16;9.47;;;7.47;;
14789;SDS011;7486;51.010;10.366;2024-01-07T06:31:05;10.33;;;7.57;;
14789;SDS011;7486;51.010;10.366;2024-01-07T06:33:50;10.63;;;7.83;;
14789;SDS011;7486;51.010;10.366;2024-01-07T06:36:36;11.47;;;7.70;;
14789;SDS011;7486;51.010;10.366;2024-01-07T06:39:22;10.00;;;7.70;;
14789;SDS011;7486;51.010;10.366;2024-01-07T06:42:08;9.03;;;6.17;;
14789;SDS011;7486;51.010;10.366;2024-01-07T06:44:53;10.23;;;7.07;;
14789;SDS011;7486;51.010;10.366;2024-01-07T06:47:39;9.60;;;6.90;;
14789;SDS011;7486;51.010;10.366;2024-01-07T06:50:24;8.17;;;6.40;;
14789;SDS011;7486;51.010;10.366;2024-01-07T06:53:10;7.93;;;6.10;;
14789;SDS011;7486;51.010;10.366;2024-01-07T06:55:55;9.50;;;6.20;;
14789;SDS011;7486;51.010;10.366;2024-01-07T06:58:41;7.50;;;5.10;;
14789;SDS011;7486;51.010;10.366;2024-01-07T07:01:26;8.57;;;6.03;;
14789;SDS011;7486;51.010;10.366;2024-01-07T07:04:11;8.33;;;6.30;;
14789;SDS011;7486;51.010;10.366;2024-01-07T07:06:57;7.73;;;6.00;;
14789;SDS011;7486;51.010;10.366;2024-01-07T07:09:43;10.17;;;6.50;;
14789;SDS011;7486;51.010;10.366;2024-01-07T07:12:28;7.30;;;5.83;;
14789;SDS011;7486;51.010;10.366;2024-01-07T07:15:14;9.83;;;6.90;;
14789;SDS011;7486;51.010;10.366;2024-01-07T07:17:59;8.53;;;6.43;;
14789;SDS011;7486;51.010;10.366;2024-01-07T07:20:45;9.27;;;6.47;;
14789;SDS011;7486;51.010;10.366;2024-01-07T07:23:31;8.03;;;6.00;;
14789;SDS011;7486;51.010;10.366;2024-01-07T07:26:16;8.63;;;5.87;;
14789;SDS011;7486;51.010;10.366;2024-01-07T07:29:02;8.97;;;6.07;;
14789;SDS011;7486;51.010;10.366;2024-01-07T07:31:47;8.43;;;6.00;;
14789;SDS011;7486;51.010;10.366;2024-01-07T07:34:33;8.37;;;6.50;;
14789;SDS011;7486;51.010;10.366;2024-01-07T07:37:18;8.07;;;6.20;;
14789;SDS011;7486;51.010;10.366;2024-01-07T07:40:06;8.70;;;6.47;;
14789;SDS011;7486;51.010;10.366;2024-01-07T07:42:52;11.60;;;7.10;;
14789;SDS011;7486;51.010;10.366;2024-01-07T07:45:37;10.13;;;6.50;;
14789;SDS011;7486;51.010;10.366;2024-01-07T07:48:23;9.23;;;6.87;;
14789;SDS011;7486;51.010;10.366;2024-01-07T07:51:08;9.47;;;6.80;;
14789;SDS011;7486;51.010;10.366;2024-01-07T07:53:54;10.23;;;6.90;;
14789;SDS011;7486;51.010;10.366;2024-01-07T07:56:40;10.10;;;7.40;;
14789;SDS011;7486;51.010;10.366;2024-01-07T07:59:25;10.63;;;7.27;;
14789;SDS011;7486;51.010;10.366;2024-01-07T08:02:11;9.37;;;7.83;;
14789;SDS011;7486;51.010;10.366;2024-01-07T08:04:57;10.50;;;7.23;;
14789;SDS011;7486;51.010;10.366;2024-01-07T08:07:42;12.57;;;7.57;;
14789;SDS011;7486;51.010;10.366;2024-01-07T08:10:28;8.87;;;7.30;;
14789;SDS011;7486;51.010;10.366;2024-01-07T08:13:13;10.40;;;7.60;;
14789;SDS011;7486;51.010;10.366;2024-01-07T08:15:59;10.97;;;7.47;;
14789;SDS011;7486;51.010;10.366;2024-01-07T08:18:44;10.20;;;7.67;;
14789;SDS011;7486;51.010;10.366;2024-01-07T08:21:30;10.03;;;7.00;;
14789;SDS011;7486;51.010;10.366;2024-01-07T08:24:15;11.33;;;7.83;;
14789;SDS011;7486;51.010;10.366;2024-01-07T08:27:01;8.77;;;6.50;;
14789;SDS011;7486;51.010;10.366;2024-01-07T08:29:47;11.30;;;7.20;;
14789;SDS011;7486;51.010;10.366;2024-01-07T08:32:32;11.70;;;7.30;;
14789;SDS011;7486;51.010;10.366;2024-01-07T08:35:18;13.23;;;7.60;;
14789;SDS011;7486;51.010;10.366;2024-01-07T08:38:05;11.97;;;7.87;;
14789;SDS011;7486;51.010;10.366;2024-01-07T08:40:51;15.07;;;8.27;;
14789;SDS011;7486;51.010;10.366;2024-01-07T08:43:38;10.97;;;7.20;;
14789;SDS011;7486;51.010;10.366;2024-01-07T08:46:23;11.43;;;7.30;;
14789;SDS011;7486;51.010;10.366;2024-01-07T08:49:09;9.80;;;6.57;;
14789;SDS011;7486;51.010;10.366;2024-01-07T08:51:54;10.33;;;6.87;;
14789;SDS011;7486;51.010;10.366;2024-01-07T08:54:40;10.73;;;6.57;;
14789;SDS011;7486;51.010;10.366;2024-01-07T08:57:26;12.90;;;6.73;;
14789;SDS011;7486;51.010;10.366;2024-01-07T09:00:12;11.57;;;7.53;;
14789;SDS011;7486;51.010;10.366;2024-01-07T09:02:57;10.30;;;7.13;;
14789;SDS011;7486;51.010;10.366;2024-01-07T09:05:43;54.63;;;25.73;;
14789;SDS011;7486;51.010;10.366;2024-01-07T09:08:28;10.37;;;7.17;;
14789;SDS011;7486;51.010;10.366;2024-01-07T09:11:14;8.67;;;5.30;;
14789;SDS011;7486;51.010;10.366;2024-01-07T09:13:59;9.53;;;5.63;;
14789;SDS011;7486;51.010;10.366;2024-01-07T09:16:45;8.27;;;5.50;;
14789;SDS011;7486;51.010;10.366;2024-01-07T09:19:31;9.47;;;5.60;;
14789;SDS011;7486;51.010;10.366;2024-01-07T09:22:19;5.27;;;4.00;;
14789;SDS011;7486;51.010;10.366;2024-01-07T09:25:07;6.20;;;4.80;;
14789;SDS011;7486;51.010;10.366;2024-01-07T09:27:53;5.23;;;4.57;;
14789;SDS011;7486;51.010;10.366;2024-01-07T09:30:39;4.70;;;3.90;;
14789;SDS011;7486;51.010;10.366;2024-01-07T09:33:24;5.40;;;4.10;;
14789;SDS011;7486;51.010;10.366;2024-01-07T09:36:10;6.10;;;4.70;;
14789;SDS011;7486;51.010;10.366;2024-01-07T09:39:13;6.13;;;4.80;;
14789;SDS011;7486;51.010;10.366;2024-01-07T09:41:59;6.30;;;4.80;;
14789;SDS011;7486;51.010;10.366;2024-01-07T09:44:44;5.47;;;4.07;;
14789;SDS011;7486;51.010;10.366;2024-01-07T09:47:30;6.63;;;5.00;;
14789;SDS011;7486;51.010;10.366;2024-01-07T09:50:16;5.40;;;4.57;;
14789;SDS011;7486;51.010;10.366;2024-01-07T09:53:01;5.80;;;5.20;;
14789;SDS011;7486;51.010;10.366;2024-01-07T09:55:52;5.43;;;4.77;;
14789;SDS011;7486;51.010;10.366;2024-01-07T09:58:42;6.67;;;5.30;;
14789;SDS011;7486;51.010;10.366;2024-01-07T10:01:27;5.90;;;4.80;;
14789;SDS011;7486;51.010;10.366;2024-01-07T10:04:13;6.83;;;4.73;;
14789;SDS011;7486;51.010;10.366;2024-01-07T10:06:59;5.27;;;4.43;;
14789;SDS011;7486;51.010;10.366;2024-01-07T10:09:45;5.67;;;4.00;;
14789;SDS011;7486;51.010;10.366;2024-01-07T10:12:30;4.47;;;4.07;;
14789;SDS011;7486;51.010;10.366;2024-01-07T10:15:16;5.10;;;4.10;;
14789;SDS011;7486;51.010;10.366;2024-01-07T10:18:04;4.80;;;4.40;;
14789;SDS011;7486;51.010;10.366;2024-01-07T10:20:51;5.23;;;4.13;;
14789;SDS011;7486;51.010;10.366;2024-01-07T10:23:38;5.23;;;3.63;;
14789;SDS011;7486;51.010;10.366;2024-01-07T10:26:23;4.23;;;3.73;;
14789;SDS011;7486;51.010;10.366;2024-01-07T10:29:15;5.23;;;4.00;;
14789;SDS011;7486;51.010;10.366;2024-01-07T10:32:01;17.10;;;10.80;;
14789;SDS011;7486;51.010;10.366;2024-01-07T10:34:47;22.27;;;13.20;;
14789;SDS011;7486;51.010;10.366;2024-01-07T10:37:34;7.20;;;4.57;;
14789;SDS011;7486;51.010;10.366;2024-01-07T10:40:20;4.10;;;3.60;;
14789;SDS011;7486;51.010;10.366;2024-01-07T10:43:05;3.87;;;3.50;;
14789;SDS011;7486;51.010;10.366;2024-01-07T10:45:51;4.73;;;3.80;;
14789;SDS011;7486;51.010;10.366;2024-01-07T10:48:37;3.90;;;3.13;;
14789;SDS011;7486;51.010;10.366;2024-01-07T10:51:23;3.57;;;3.27;;
14789;SDS011;7486;51.010;10.366;2024-01-07T10:54:12;3.77;;;3.17;;
14789;SDS011;7486;51.010;10.366;2024-01-07T10:57:34;6.13;;;4.40;;
14789;SDS011;7486;51.010;10.366;2024-01-07T11:00:19;3.97;;;3.57;;
14789;SDS011;7486;51.010;10.366;2024-01-07T11:03:54;3.53;;;3.07;;
14789;SDS011;7486;51.010;10.366;2024-01-07T11:09:20;4.10;;;2.70;;
14789;SDS011;7486;51.010;10.366;2024-01-07T11:12:10;4.17;;;3.00;;
14789;SDS011;7486;51.010;10.366;2024-01-07T11:14:56;2.57;;;2.10;;
14789;SDS011;7486;51.010;10.366;2024-01-07T11:17:42;2.10;;;1.90;;
14789;SDS011;7486;51.010;10.366;2024-01-07T11:20:27;2.03;;;1.83;;
14789;SDS011;7486;51.010;10.366;2024-01-07T11:23:26;2.40;;;2.20;;
14789;SDS011;7486;51.010;10.366;2024-01-07T11:26:15;2.73;;;2.07;;
14789;SDS011;7486;51.010;10.366;2024-01-07T11:29:00;2.53;;;2.07;;
14789;SDS011;7486;51.010;10.366;2024-01-07T11:31:46;2.30;;;2.03;;
14789;SDS011;7486;51.010;10.366;2024-01-07T11:34:41;1.97;;;1.80;;
14789;SDS011;7486;51.010;10.366;2024-01-07T11:37:28;2.50;;;1.77;;
14789;SDS011;7486;51.010;10.366;2024-01-07T11:40:13;3.63;;;1.80;;
14789;SDS011;7486;51.010;10.366;2024-01-07T11:42:59;2.97;;;2.43;;
14789;SDS011;7486;51.010;10.366;2024-01-07T11:45:45;1.80;;;1.70;;
14789;SDS011;7486;51.010;10.366;2024-01-07T11:48:30;1.70;;;1.60;;
14789;SDS011;7486;51.010;10.366;2024-01-07T11:51:16;1.67;;;1.50;;
14789;SDS011;7486;51.010;10.366;2024-01-07T11:54:01;3.30;;;2.37;;
14789;SDS011;7486;51.010;10.366;2024-01-07T11:56:47;1.70;;;1.60;;
14789;SDS011;7486;51.010;10.366;2024-01-07T11:59:33;1.77;;;1.67;;
14789;SDS011;7486;51.010;10.366;2024-01-07T12:02:19;3.07;;;1.53;;
14789;SDS011;7486;51.010;10.366;2024-01-07T12:05:04;2.23;;;2.00;;
14789;SDS011;7486;51.010;10.366;2024-01-07T12:07:50;1.80;;;1.70;;
14789;SDS011;7486;51.010;10.366;2024-01-07T12:10:37;1.80;;;1.60;;
14789;SDS011;7486;51.010;10.366;2024-01-07T12:13:24;1.80;;;1.70;;
14789;SDS011;7486;51.010;10.366;2024-01-07T12:16:11;3.33;;;1.97;;
14789;SDS011;7486;51.010;10.366;2024-01-07T12:18:57;1.60;;;1.50;;
14789;SDS011;7486;51.010;10.366;2024-01-07T12:21:42;2.10;;;1.90;;
14789;SDS011;7486;51.010;10.366;2024-01-07T12:24:28;1.90;;;1.60;;
14789;SDS011;7486;51.010;10.366;2024-01-07T12:27:13;2.00;;;1.80;;
14789;SDS011;7486;51.010;10.366;2024-01-07T12:29:59;1.60;;;1.50;;
14789;SDS011;7486;51.010;10.366;2024-01-07T12:32:45;2.10;;;1.90;;
14789;SDS011;7486;51.010;10.366;2024-01-07T12:35:30;1.90;;;1.80;;
14789;SDS011;7486;51.010;10.366;2024-01-07T12:38:16;1.80;;;1.70;;
14789;SDS011;7486;51.010;10.366;2024-01-07T12:41:07;2.03;;;1.80;;
14789;SDS011;7486;51.010;10.366;2024-01-07T12:43:53;2.30;;;2.10;;
14789;SDS011;7486;51.010;10.366;2024-01-07T12:46:39;1.87;;;1.67;;
14789;SDS011;7486;51.010;10.366;2024-01-07T12:49:24;2.00;;;1.80;;
14789;SDS011;7486;51.010;10.366;2024-01-07T12:52:10;2.60;;;2.37;;
14789;SDS011;7486;51.010;10.366;2024-01-07T12:54:55;2.17;;;1.97;;
14789;SDS011;7486;51.010;10.366;2024-01-07T12:57:41;2.70;;;2.00;;
14789;SDS011;7486;51.010;10.366;2024-01-07T13:00:27;1.67;;;1.50;;
14789;SDS011;7486;51.010;10.366;2024-01-07T13:03:13;1.80;;;1.70;;
14789;SDS011;7486;51.010;10.366;2024-01-07T13:05:59;1.80;;;1.70;;
14789;SDS011;7486;51.010;10.366;2024-01-07T13:08:45;2.87;;;1.97;;
14789;SDS011;7486;51.010;10.366;2024-01-07T13:11:31;1.80;;;1.60;;
14789;SDS011;7486;51.010;10.366;2024-01-07T13:14:16;1.60;;;1.50;;
14789;SDS011;7486;51.010;10.366;2024-01-07T13:17:02;1.90;;;1.70;;
14789;SDS011;7486;51.010;10.366;2024-01-07T13:19:48;1.60;;;1.50;;
14789;SDS011;7486;51.010;10.366;2024-01-07T13:22:33;1.13;;;1.13;;
14789;SDS011;7486;51.010;10.366;2024-01-07T13:25:19;1.93;;;1.40;;
14789;SDS011;7486;51.010;10.366;2024-01-07T13:28:04;2.43;;;1.90;;
14789;SDS011;7486;51.010;10.366;2024-01-07T13:30:50;1.57;;;1.47;;
14789;SDS011;7486;51.010;10.366;2024-01-07T13:33:36;1.60;;;1.50;;
14789;SDS011;7486;51.010;10.366;2024-01-07T13:36:21;1.60;;;1.50;;
14789;SDS011;7486;51.010;10.366;2024-01-07T13:39:10;1.43;;;1.33;;
14789;SDS011;7486;51.010;10.366;2024-01-07T13:41:55;1.50;;;1.40;;
14789;SDS011;7486;51.010;10.366;2024-01-07T13:44:41;1.70;;;1.60;;
14789;SDS011;7486;51.010;10.366;2024-01-07T13:47:27;1.80;;;1.53;;
14789;SDS011;7486;51.010;10.366;2024-01-07T13:50:12;2.10;;;1.90;;
14789;SDS011;7486;51.010;10.366;2024-01-07T13:52:58;2.00;;;1.80;;
14789;SDS011;7486;51.010;10.366;2024-01-07T13:55:43;2.23;;;1.80;;
14789;SDS011;7486;51.010;10.366;2024-01-07T13:58:29;2.10;;;1.73;;
14789;SDS011;7486;51.010;10.366;2024-01-07T14:01:14;1.77;;;1.67;;
14789;SDS011;7486;51.010;10.366;2024-01-07T14:04:00;1.73;;;1.63;;
14789;SDS011;7486;51.010;10.366;2024-01-07T14:06:47;2.43;;;1.80;;
14789;SDS011;7486;51.010;10.366;2024-01-07T14:09:32;2.77;;;2.00;;
14789;SDS011;7486;51.010;10.366;2024-01-07T14:12:18;1.73;;;1.63;;
14789;SDS011;7486;51.010;10.366;2024-01-07T14:15:03;1.90;;;1.70;;
14789;SDS011;7486;51.010;10.366;2024-01-07T14:17:49;1.40;;;1.30;;
14789;SDS011;7486;51.010;10.366;2024-01-07T14:20:35;2.70;;;1.80;;
14789;SDS011;7486;51.010;10.366;2024-01-07T14:23:21;1.97;;;1.83;;
14789;SDS011;7486;51.010;10.366;2024-01-07T14:26:06;2.03;;;1.70;;
14789;SDS011;7486;51.010;10.366;2024-01-07T14:28:51;3.73;;;1.80;;
14789;SDS011;7486;51.010;10.366;2024-01-07T14:31:57;2.60;;;1.70;;
14789;SDS011;7486;51.010;10.366;2024-01-07T14:34:42;2.10;;;1.90;;
14789;SDS011;7486;51.010;10.366;2024-01-07T14:37:30;2.20;;;1.90;;
14789;SDS011;7486;51.010;10.366;2024-01-07T14:40:15;2.20;;;1.57;;
14789;SDS011;7486;51.010;10.366;2024-01-07T14:43:00;1.80;;;1.70;;
14789;SDS011;7486;51.010;10.366;2024-01-07T14:45:46;1.67;;;1.57;;
14789;SDS011;7486;51.010;10.366;2024-01-07T14:48:31;1.80;;;1.70;;
14789;SDS011;7486;51.010;10.366;2024-01-07T14:51:17;1.50;;;1.40;;
14789;SDS011;7486;51.010;10.366;2024-01-07T14:54:02;2.17;;;1.97;;
14789;SDS011;7486;51.010;10.366;2024-01-07T14:56:48;1.83;;;1.53;;
14789;SDS011;7486;51.010;10.366;2024-01-07T14:59:34;2.13;;;1.70;;
14789;SDS011;7486;51.010;10.366;2024-01-07T15:02:20;1.77;;;1.67;;
14789;SDS011;7486;51.010;10.366;2024-01-07T15:05:06;2.30;;;2.10;;
14789;SDS011;7486;51.010;10.366;2024-01-07T15:07:52;2.53;;;1.70;;
14789;SDS011;7486;51.010;10.366;2024-01-07T15:10:37;2.27;;;1.80;;
14789;SDS011;7486;51.010;10.366;2024-01-07T15:13:23;2.17;;;1.93;;
14789;SDS011;7486;51.010;10.366;2024-01-07T15:16:09;2.30;;;2.00;;
14789;SDS011;7486;51.010;10.366;2024-01-07T15:18:55;2.57;;;2.10;;
14789;SDS011;7486;51.010;10.366;2024-01-07T15:21:40;2.53;;;2.03;;
14789;SDS011;7486;51.010;10.366;2024-01-07T15:24:26;2.17;;;1.90;;
14789;SDS011;7486;51.010;10.366;2024-01-07T15:27:12;1.80;;;1.70;;
14789;SDS011;7486;51.010;10.366;2024-01-07T15:29:58;2.33;;;2.13;;
14789;SDS011;7486;51.010;10.366;2024-01-07T15:32:43;2.17;;;1.97;;
14789;SDS011;7486;51.010;10.366;2024-01-07T15:35:29;2.53;;;2.20;;
14789;SDS011;7486;51.010;10.366;2024-01-07T15:38:15;2.60;;;2.40;;
14789;SDS011;7486;51.010;10.366;2024-01-07T15:41:00;2.17;;;1.97;;
14789;SDS011;7486;51.010;10.366;2024-01-07T15:43:47;2.20;;;2.00;;
14789;SDS011;7486;51.010;10.366;2024-01-07T15:46:32;2.30;;;2.10;;
14789;SDS011;7486;51.010;10.366;2024-01-07T15:49:19;2.50;;;2.17;;
14789;SDS011;7486;51.010;10.366;2024-01-07T15:52:05;2.60;;;2.40;;
14789;SDS011;7486;51.010;10.366;2024-01-07T15:54:50;3.13;;;2.30;;
14789;SDS011;7486;51.010;10.366;2024-01-07T15:57:37;2.60;;;2.37;;
14789;SDS011;7486;51.010;10.366;2024-01-07T16:00:23;2.10;;;1.90;;
14789;SDS011;7486;51.010;10.366;2024-01-07T16:03:08;2.80;;;2.40;;
14789;SDS011;7486;51.010;10.366;2024-01-07T16:05:55;3.50;;;2.30;;
14789;SDS011;7486;51.010;10.366;2024-01-07T16:08:40;2.60;;;2.10;;
14789;SDS011;7486;51.010;10.366;2024-01-07T16:11:26;4.10;;;2.40;;
14789;SDS011;7486;51.010;10.366;2024-01-07T16:14:11;2.80;;;2.50;;
14789;SDS011;7486;51.010;10.366;2024-01-07T16:16:57;4.07;;;2.73;;
14789;SDS011;7486;51.010;10.366;2024-01-07T16:19:42;2.30;;;2.03;;
14789;SDS011;7486;51.010;10.366;2024-01-07T16:22:28;2.80;;;1.90;;
14789;SDS011;7486;51.010;10.366;2024-01-07T16:25:14;3.37;;;2.10;;
14789;SDS011;7486;51.010;10.366;2024-01-07T16:28:01;2.13;;;1.93;;
14789;SDS011;7486;51.010;10.366;2024-01-07T16:30:46;2.60;;;2.20;;
14789;SDS011;7486;51.010;10.366;2024-01-07T16:33:31;2.47;;;2.27;;